createdAt,value
2018-09-20T00:01:46.669Z,69.10
2018-09-20T00:04:16.850Z,69.40
2018-09-20T00:06:46.297Z,69.70
2018-09-20T00:09:15.455Z,69.30
2018-09-20T00:11:44.578Z,70.20
2018-09-20T00:14:14.390Z,69.40
2018-09-20T00:16:43.871Z,69.40
2018-09-20T00:19:13.668Z,69.30
2018-09-20T00:21:42.734Z,69.90
2018-09-20T00:24:11.571Z,69.50
2018-09-20T00:26:41.271Z,69.50
2018-09-20T00:29:10.555Z,69.60
2018-09-20T00:31:39.869Z,70.60
2018-09-20T00:34:08.943Z,70.40
2018-09-20T00:36:38.153Z,70.40
2018-09-20T00:39:13.528Z,70.50
2018-09-20T00:41:43.255Z,70.30
2018-09-20T00:44:12.876Z,70.00
2018-09-20T00:46:42.005Z,70.40
2018-09-20T00:49:11.401Z,70.40
2018-09-20T00:51:41.216Z,70.10
2018-09-20T00:54:10.434Z,70.00
2018-09-20T00:56:39.373Z,70.10
2018-09-20T00:59:08.506Z,70.10
2018-09-20T01:01:37.513Z,70.50
2018-09-20T01:04:07.011Z,70.20
2018-09-20T01:06:36.273Z,70.30
2018-09-20T01:09:08.166Z,70.30
2018-09-20T01:11:37.630Z,70.50
2018-09-20T01:14:06.502Z,70.30
2018-09-20T01:16:35.663Z,70.60
2018-09-20T01:19:04.965Z,70.70
2018-09-20T01:21:34.045Z,70.70
2018-09-20T01:24:03.282Z,70.80
2018-09-20T01:26:32.100Z,71.10
2018-09-20T01:29:01.209Z,71.00
2018-09-20T01:31:30.493Z,70.80
2018-09-20T01:33:59.743Z,70.80
2018-09-20T01:36:29.034Z,70.90
2018-09-20T01:38:58.054Z,71.00
2018-09-20T01:41:27.071Z,70.80
2018-09-20T01:43:56.139Z,71.00
2018-09-20T01:46:50.392Z,71.00
2018-09-20T01:49:19.820Z,71.10
2018-09-20T01:51:48.798Z,71.00
2018-09-20T01:54:17.725Z,71.20
2018-09-20T01:56:46.601Z,71.20
2018-09-20T01:59:15.527Z,71.30
2018-09-20T02:01:44.667Z,71.50
2018-09-20T02:04:14.154Z,71.60
2018-09-20T02:06:43.277Z,71.50
2018-09-20T02:09:12.386Z,71.70
2018-09-20T02:11:42.018Z,71.90
2018-09-20T02:14:10.655Z,71.70
2018-09-20T02:16:39.461Z,71.60
2018-09-20T02:19:08.350Z,71.70
2018-09-20T02:21:37.573Z,71.80
2018-09-20T02:24:06.317Z,72.20
2018-09-20T02:26:35.119Z,72.30
2018-09-20T02:29:04.129Z,72.30
2018-09-20T02:31:32.880Z,72.20
2018-09-20T02:34:01.446Z,72.30
2018-09-20T02:36:30.657Z,73.00
2018-09-20T02:38:59.366Z,72.30
2018-09-20T02:41:28.020Z,72.30
2018-09-20T02:43:56.739Z,72.50
2018-09-20T02:46:25.460Z,72.30
2018-09-20T02:48:54.067Z,72.50
2018-09-20T02:51:22.821Z,72.10
2018-09-20T02:53:51.805Z,72.80
2018-09-20T02:56:20.957Z,72.90
2018-09-20T02:58:50.524Z,73.00
2018-09-20T03:01:19.551Z,73.20
2018-09-20T03:03:48.920Z,73.50
2018-09-20T03:06:18.375Z,73.50
2018-09-20T03:08:47.748Z,73.10
2018-09-20T03:11:18.066Z,73.40
2018-09-20T03:13:46.782Z,73.00
2018-09-20T03:16:15.426Z,72.80
2018-09-20T03:18:44.241Z,73.40
2018-09-20T03:21:13.010Z,73.70
2018-09-20T03:23:42.031Z,72.90
2018-09-20T03:26:11.703Z,72.90
2018-09-20T03:28:40.510Z,73.10
2018-09-20T03:31:09.491Z,73.20
2018-09-20T03:33:38.141Z,73.00
2018-09-20T03:36:07.122Z,73.10
2018-09-20T03:38:35.680Z,73.00
2018-09-20T03:41:04.251Z,73.20
2018-09-20T03:43:33.631Z,73.40
2018-09-20T03:46:02.323Z,72.80
2018-09-20T03:48:33.146Z,72.50
2018-09-20T03:51:01.807Z,72.50
2018-09-20T03:53:30.753Z,72.30
2018-09-20T03:55:59.633Z,72.30
2018-09-20T03:58:28.278Z,72.20
2018-09-20T04:00:57.024Z,72.30
2018-09-20T04:03:25.771Z,72.40
2018-09-20T04:05:54.789Z,72.60
2018-09-20T04:08:23.954Z,72.90
2018-09-20T04:10:53.253Z,72.60
2018-09-20T04:13:23.200Z,73.00
2018-09-20T04:15:52.047Z,72.90
2018-09-20T04:18:22.045Z,73.10
2018-09-20T04:20:51.141Z,73.70
2018-09-20T04:23:19.923Z,72.90
2018-09-20T04:25:49.071Z,72.90
2018-09-20T04:28:18.536Z,73.40
2018-09-20T04:30:47.616Z,73.30
2018-09-20T04:33:16.545Z,73.20
2018-09-20T04:35:45.732Z,73.10
2018-09-20T04:38:14.495Z,73.10
2018-09-20T04:40:44.314Z,72.90
2018-09-20T04:43:13.256Z,73.10
2018-09-20T04:45:43.037Z,74.50
2018-09-20T04:48:12.110Z,73.60
2018-09-20T04:50:42.789Z,73.30
2018-09-20T04:53:12.601Z,73.30
2018-09-20T04:55:43.742Z,73.20
2018-09-20T04:58:13.950Z,73.20
2018-09-20T05:00:43.404Z,73.50
2018-09-20T05:03:12.956Z,73.50
2018-09-20T05:05:44.064Z,73.80
2018-09-20T05:08:13.713Z,73.90
2018-09-20T05:10:45.089Z,74.20
2018-09-20T05:13:15.200Z,74.30
2018-09-20T05:15:45.386Z,74.50
2018-09-20T05:18:26.758Z,74.40
2018-09-20T05:21:01.456Z,74.90
2018-09-20T05:26:17.632Z,76.20
2018-09-20T05:28:48.201Z,76.40
2018-09-20T05:36:49.069Z,75.80
2018-09-20T05:39:23.051Z,76.60
2018-09-20T05:41:53.417Z,76.30
2018-09-20T05:44:26.911Z,76.10
2018-09-20T05:46:56.953Z,76.30
2018-09-20T05:49:25.848Z,76.60
2018-09-20T05:51:56.562Z,77.00
2018-09-20T05:54:26.471Z,77.00
2018-09-20T05:56:55.461Z,77.20
2018-09-20T05:59:24.221Z,77.60
2018-09-20T06:01:53.042Z,77.80
2018-09-20T06:04:21.612Z,78.10
2018-09-20T06:06:50.450Z,78.00
2018-09-20T06:09:19.437Z,77.70
2018-09-20T06:11:48.350Z,77.80
2018-09-20T06:14:41.713Z,77.80
2018-09-20T06:20:05.396Z,77.10
2018-09-20T06:22:35.397Z,76.60
2018-09-20T06:25:04.202Z,77.00
2018-09-20T06:27:34.263Z,77.00
2018-09-20T06:30:05.434Z,76.70
2018-09-20T06:32:36.771Z,76.70
2018-09-20T06:35:09.180Z,76.40
2018-09-20T06:37:41.575Z,76.30
2018-09-20T06:40:10.254Z,75.90
2018-09-20T06:42:39.626Z,75.70
2018-09-20T06:45:09.091Z,75.40
2018-09-20T06:48:19.955Z,75.70
2018-09-20T06:50:50.947Z,75.70
2018-09-20T06:53:19.756Z,75.70
2018-09-20T06:55:48.860Z,75.30
2018-09-20T06:58:17.620Z,74.80
2018-09-20T07:00:46.514Z,74.50
2018-09-20T07:03:17.564Z,74.40
2018-09-20T07:05:48.118Z,74.10
2018-09-20T07:08:18.407Z,74.20
2018-09-20T07:10:47.329Z,73.80
2018-09-20T07:13:17.027Z,74.00
2018-09-20T07:15:45.898Z,74.20
2018-09-20T07:18:14.498Z,73.90
2018-09-20T07:20:43.360Z,73.60
2018-09-20T07:23:12.751Z,73.40
2018-09-20T07:25:42.095Z,73.40
2018-09-20T07:28:11.866Z,73.30
2018-09-20T07:30:41.340Z,73.10
2018-09-20T07:33:10.873Z,73.00
2018-09-20T07:35:40.265Z,73.00
2018-09-20T07:38:09.757Z,72.60
2018-09-20T07:40:39.863Z,72.50
2018-09-20T07:43:09.704Z,72.60
2018-09-20T07:45:38.515Z,72.80
2018-09-20T07:48:08.111Z,72.60
2018-09-20T07:50:37.113Z,72.60
2018-09-20T07:53:06.222Z,72.20
2018-09-20T07:55:36.101Z,72.70
2018-09-20T07:58:05.360Z,72.40
2018-09-20T08:00:34.714Z,72.40
2018-09-20T08:03:04.579Z,71.90
2018-09-20T08:05:33.797Z,71.70
2018-09-20T08:08:03.292Z,71.60
2018-09-20T08:10:34.079Z,71.20
2018-09-20T08:13:03.082Z,70.70
2018-09-20T08:15:33.669Z,70.00
2018-09-20T08:18:02.636Z,69.80
2018-09-20T08:20:31.992Z,69.80
2018-09-20T08:23:02.391Z,69.00
2018-09-20T08:25:31.710Z,68.50
2018-09-20T08:28:00.556Z,68.80
2018-09-20T08:30:29.221Z,68.80
2018-09-20T08:33:00.697Z,68.60
2018-09-20T08:35:30.437Z,68.20
2018-09-20T08:38:00.071Z,67.50
2018-09-20T08:40:30.180Z,67.40
2018-09-20T08:43:23.345Z,66.20
2018-09-20T08:45:54.369Z,65.90
2018-09-20T08:48:23.538Z,64.40
2018-09-20T08:50:55.303Z,63.40
2018-09-20T08:53:24.317Z,62.70
2018-09-20T08:55:54.954Z,62.80
2018-09-20T08:58:25.062Z,62.20
2018-09-20T09:00:54.289Z,63.20
2018-09-20T09:03:23.396Z,62.50
2018-09-20T09:05:52.375Z,63.50
2018-09-20T09:08:22.078Z,63.80
2018-09-20T09:10:56.751Z,63.80
2018-09-20T09:13:26.194Z,64.10
2018-09-20T09:15:55.631Z,63.50
2018-09-20T09:18:25.063Z,62.60
2018-09-20T09:20:54.528Z,61.60
2018-09-20T09:23:24.158Z,61.10
2018-09-20T09:25:52.962Z,59.80
2018-09-20T09:28:22.419Z,60.70
2018-09-20T09:30:51.248Z,60.10
2018-09-20T09:33:20.544Z,60.00
2018-09-20T09:35:49.737Z,59.80
2018-09-20T09:38:19.054Z,59.80
2018-09-20T09:40:48.599Z,60.30
2018-09-20T09:43:17.734Z,59.20
2018-09-20T09:45:46.588Z,59.50
2018-09-20T09:48:15.434Z,60.00
2018-09-20T09:50:44.662Z,60.80
2018-09-20T09:53:13.643Z,61.10
2018-09-20T09:55:42.406Z,60.00
2018-09-20T09:58:12.263Z,60.10
2018-09-20T10:00:42.270Z,59.70
2018-09-20T10:03:11.391Z,60.20
2018-09-20T10:05:42.441Z,59.50
2018-09-20T10:08:11.503Z,59.40
2018-09-20T10:10:40.320Z,58.60
2018-09-20T10:13:09.457Z,59.30
2018-09-20T10:15:38.873Z,58.40
2018-09-20T10:18:08.494Z,58.50
2018-09-20T10:20:37.660Z,58.80
2018-09-20T10:23:06.558Z,58.70
2018-09-20T10:25:35.343Z,58.90
2018-09-20T10:28:04.703Z,56.70
2018-09-20T10:30:35.375Z,55.80
2018-09-20T10:33:08.258Z,56.10
2018-09-20T10:35:37.716Z,55.90
2018-09-20T10:38:07.395Z,55.90
2018-09-20T10:40:36.484Z,56.00
2018-09-20T10:43:06.648Z,56.00
2018-09-20T10:45:35.919Z,55.30
2018-09-20T10:48:07.391Z,56.20
2018-09-20T10:50:36.640Z,55.20
2018-09-20T10:53:05.838Z,55.90
2018-09-20T10:55:35.305Z,54.50
2018-09-20T10:58:04.543Z,54.20
2018-09-20T11:00:33.789Z,55.20
2018-09-20T11:03:02.586Z,53.90
2018-09-20T11:05:31.598Z,53.10
2018-09-20T11:08:00.845Z,52.10
2018-09-20T11:10:29.804Z,52.60
2018-09-20T11:12:58.895Z,51.40
2018-09-20T11:15:28.229Z,51.40
2018-09-20T11:17:57.077Z,51.30
2018-09-20T11:20:26.513Z,53.10
2018-09-20T11:22:55.589Z,52.50
2018-09-20T11:25:25.774Z,50.30
2018-09-20T11:27:55.844Z,52.70
2018-09-20T11:30:24.708Z,46.30
2018-09-20T11:32:53.534Z,48.10
2018-09-20T11:35:22.967Z,49.70
2018-09-20T11:37:51.873Z,43.40
2018-09-20T11:40:20.717Z,42.80
2018-09-20T11:42:49.855Z,43.20
2018-09-20T11:45:18.776Z,44.20
2018-09-20T11:47:48.106Z,44.00
2018-09-20T11:52:45.436Z,45.00
2018-09-20T11:55:14.173Z,44.80
2018-09-20T11:57:43.616Z,44.60
2018-09-20T12:00:16.179Z,46.90
2018-09-20T12:02:45.961Z,44.50
2018-09-20T12:05:16.917Z,45.60
2018-09-20T12:07:47.106Z,39.50
2018-09-20T12:10:16.723Z,44.10
2018-09-20T12:12:46.640Z,41.20
2018-09-20T12:15:15.730Z,38.60
2018-09-20T12:17:44.872Z,39.40
2018-09-20T12:20:13.589Z,40.10
2018-09-20T12:22:43.682Z,44.80
2018-09-20T12:25:12.666Z,38.10
2018-09-20T12:27:41.498Z,38.50
2018-09-20T12:30:13.899Z,40.90
2018-09-20T12:32:43.007Z,37.00
2018-09-20T12:35:11.816Z,38.70
2018-09-20T12:37:42.891Z,39.90
2018-09-20T12:40:11.932Z,41.50
2018-09-20T12:42:41.339Z,43.30
2018-09-20T12:45:11.529Z,40.70
2018-09-20T12:47:41.251Z,41.50
2018-09-20T12:50:10.846Z,40.10
2018-09-20T12:52:40.799Z,41.40
2018-09-20T12:55:09.990Z,41.30
2018-09-20T12:57:39.492Z,42.20
2018-09-20T13:00:10.983Z,41.30
2018-09-20T13:02:40.038Z,38.60
2018-09-20T13:05:09.551Z,36.80
2018-09-20T13:07:42.290Z,33.70
2018-09-20T13:10:11.125Z,34.20
2018-09-20T13:12:40.885Z,34.40
2018-09-20T13:15:11.108Z,35.30
2018-09-20T13:17:40.720Z,37.90
2018-09-20T13:20:11.216Z,39.80
2018-09-20T13:22:41.803Z,37.50
2018-09-20T13:25:11.418Z,35.80
2018-09-20T13:27:41.653Z,33.70
2018-09-20T13:30:10.976Z,35.80
2018-09-20T13:32:39.958Z,34.80
2018-09-20T13:35:09.081Z,32.80
2018-09-20T13:37:38.488Z,30.20
2018-09-20T13:40:09.404Z,30.00
2018-09-20T13:42:38.389Z,30.00
2018-09-20T13:45:07.393Z,30.00
2018-09-20T13:47:36.595Z,30.90
2018-09-20T13:50:19.159Z,28.80
2018-09-20T13:52:50.754Z,29.50
2018-09-20T13:55:20.060Z,29.00
2018-09-20T13:57:49.696Z,28.10
2018-09-20T14:00:19.236Z,29.60
2018-09-20T14:02:49.938Z,28.90
2018-09-20T14:05:19.087Z,27.90
2018-09-20T14:07:48.949Z,28.50
2018-09-20T14:10:18.130Z,27.10
2018-09-20T14:12:48.721Z,27.20
2018-09-20T14:15:17.887Z,27.50
2018-09-20T14:17:46.843Z,27.70
2018-09-20T14:20:15.968Z,28.20
2018-09-20T14:22:45.105Z,27.80
2018-09-20T14:25:14.468Z,28.00
2018-09-20T14:27:44.595Z,27.60
2018-09-20T14:30:13.978Z,28.30
2018-09-20T14:32:44.621Z,28.40
2018-09-20T14:35:14.555Z,28.00
2018-09-20T14:37:44.723Z,28.00
2018-09-20T14:40:14.623Z,28.60
2018-09-20T14:42:44.314Z,29.70
2018-09-20T14:45:14.181Z,30.70
2018-09-20T14:47:43.715Z,31.50
2018-09-20T14:50:13.289Z,32.10
2018-09-20T14:52:43.209Z,32.80
2018-09-20T14:55:12.128Z,33.30
2018-09-20T14:57:41.522Z,34.60
2018-09-20T15:00:14.777Z,35.10
2018-09-20T15:02:43.664Z,34.90
2018-09-20T15:05:12.983Z,35.50
2018-09-20T15:07:42.634Z,35.90
2018-09-20T15:10:11.519Z,36.90
2018-09-20T15:12:42.835Z,37.50
2018-09-20T15:15:12.144Z,38.10
2018-09-20T15:17:41.828Z,38.00
2018-09-20T15:20:13.332Z,38.60
2018-09-20T15:22:43.226Z,39.40
2018-09-20T15:25:14.811Z,41.50
2018-09-20T15:27:46.121Z,40.50
2018-09-20T15:30:16.422Z,41.60
2018-09-20T15:32:47.509Z,41.20
2018-09-20T15:35:16.838Z,41.70
2018-09-20T15:37:45.822Z,41.80
2018-09-20T15:40:15.081Z,42.50
2018-09-20T15:42:44.932Z,42.60
2018-09-20T15:45:14.470Z,42.60
2018-09-20T15:47:43.445Z,43.10
2018-09-20T15:50:12.394Z,42.90
2018-09-20T15:52:41.441Z,42.70
2018-09-20T15:55:10.395Z,43.10
2018-09-20T15:57:40.245Z,43.00
2018-09-20T16:00:09.393Z,43.20
2018-09-20T16:02:38.295Z,43.60
2018-09-20T16:05:07.181Z,43.30
2018-09-20T16:07:35.952Z,44.20
2018-09-20T16:10:06.226Z,43.90
2018-09-20T16:12:37.572Z,43.90
2018-09-20T16:15:08.399Z,44.60
2018-09-20T16:17:37.370Z,44.80
2018-09-20T16:20:07.086Z,44.30
2018-09-20T16:22:36.255Z,44.20
2018-09-20T16:25:06.322Z,44.30
2018-09-20T16:27:36.314Z,45.30
2018-09-20T16:30:25.645Z,45.40
2018-09-20T16:35:11.093Z,46.10
2018-09-20T16:38:00.741Z,46.30
2018-09-20T16:40:33.095Z,46.80
2018-09-20T16:43:02.226Z,46.50
2018-09-20T16:45:31.728Z,47.20
2018-09-20T16:48:00.612Z,47.10
2018-09-20T16:50:31.305Z,47.30
2018-09-20T16:53:00.307Z,48.30
2018-09-20T16:55:29.451Z,48.40
2018-09-20T16:57:58.228Z,48.10
2018-09-20T17:00:27.745Z,48.30
2018-09-20T17:02:57.520Z,48.60
2018-09-20T17:05:26.873Z,48.70
2018-09-20T17:07:55.812Z,48.90
2018-09-20T17:10:25.253Z,48.30
2018-09-20T17:12:56.327Z,49.40
2018-09-20T17:15:25.110Z,49.80
2018-09-20T17:17:53.985Z,49.90
2018-09-20T17:20:22.783Z,49.80
2018-09-20T17:22:52.213Z,50.70
2018-09-20T17:25:21.177Z,50.10
2018-09-20T17:27:51.150Z,50.70
2018-09-20T17:30:23.371Z,50.60
2018-09-20T17:32:52.989Z,50.50
2018-09-20T17:35:22.467Z,50.50
2018-09-20T17:37:52.780Z,51.30
2018-09-20T17:40:27.556Z,51.20
2018-09-20T17:43:00.922Z,51.80
2018-09-20T17:45:31.217Z,51.70
2018-09-20T17:48:00.361Z,51.50
2018-09-20T17:50:29.131Z,51.60
2018-09-20T17:52:58.980Z,51.70
2018-09-20T17:55:28.576Z,51.90
2018-09-20T17:57:59.643Z,51.90
2018-09-20T18:00:29.195Z,51.50
2018-09-20T18:02:58.561Z,52.30
2018-09-20T18:05:27.629Z,53.20
2018-09-20T18:07:56.671Z,52.90
2018-09-20T18:10:25.600Z,53.20
2018-09-20T18:12:54.564Z,53.00
2018-09-20T18:15:23.428Z,53.20
2018-09-20T18:17:52.245Z,52.90
2018-09-20T18:20:21.092Z,54.80
2018-09-20T18:22:50.498Z,55.40
2018-09-20T18:25:19.883Z,54.20
2018-09-20T18:27:49.390Z,55.80
2018-09-20T18:30:18.600Z,56.10
2018-09-20T18:32:47.329Z,56.50
2018-09-20T18:35:16.499Z,56.30
2018-09-20T18:37:45.769Z,56.20
2018-09-20T18:40:14.758Z,56.20
2018-09-20T18:42:43.744Z,56.40
2018-09-20T18:45:13.067Z,56.10
2018-09-20T18:47:41.978Z,56.10
2018-09-20T18:50:12.258Z,55.60
2018-09-20T18:52:42.149Z,56.30
2018-09-20T18:55:11.085Z,56.10
2018-09-20T18:57:42.162Z,56.00
2018-09-20T19:00:11.462Z,55.80
2018-09-20T19:02:40.830Z,55.20
2018-09-20T19:05:13.609Z,55.80
2018-09-20T19:07:43.343Z,55.60
2018-09-20T19:10:12.751Z,55.60
2018-09-20T19:12:42.294Z,55.50
2018-09-20T19:15:11.651Z,55.70
2018-09-20T19:17:40.963Z,55.60
2018-09-20T19:20:11.251Z,56.10
2018-09-20T19:22:40.422Z,55.80
2018-09-20T19:25:09.668Z,56.00
2018-09-20T19:27:40.468Z,56.00
2018-09-20T19:30:09.741Z,56.50
2018-09-20T19:32:38.832Z,55.70
2018-09-20T19:35:08.627Z,55.50
2018-09-20T19:37:37.700Z,55.40
2018-09-20T19:40:06.766Z,55.60
2018-09-20T19:42:36.191Z,55.80
2018-09-20T19:45:05.829Z,55.80
2018-09-20T19:47:35.041Z,55.60
2018-09-20T19:50:04.139Z,55.90
2018-09-20T19:52:32.869Z,55.60
2018-09-20T19:55:02.048Z,55.70
2018-09-20T19:57:31.256Z,55.70
2018-09-20T20:00:00.475Z,55.10
2018-09-20T20:02:30.811Z,55.80
2018-09-20T20:05:00.134Z,55.60
2018-09-20T20:07:30.718Z,55.80
2018-09-20T20:09:59.658Z,55.70
2018-09-20T20:12:33.799Z,55.60
2018-09-20T20:15:03.274Z,56.00
2018-09-20T20:17:33.953Z,56.00
2018-09-20T20:20:04.325Z,56.00
2018-09-20T20:22:34.341Z,55.90
2018-09-20T20:25:03.931Z,56.90
2018-09-20T20:27:34.479Z,56.10
2018-09-20T20:30:05.377Z,56.30
2018-09-20T20:32:35.035Z,56.20
2018-09-20T20:35:04.044Z,55.90
2018-09-20T20:37:33.229Z,56.20
2018-09-20T20:40:02.394Z,56.30
2018-09-20T20:42:31.644Z,56.40
2018-09-20T20:45:01.214Z,56.60
2018-09-20T20:47:30.325Z,56.70
2018-09-20T20:50:00.459Z,56.40
2018-09-20T20:52:29.794Z,56.50
2018-09-20T20:54:59.632Z,56.70
2018-09-20T20:57:30.356Z,56.40
2018-09-20T21:00:01.137Z,56.40
2018-09-20T21:02:31.355Z,56.70
2018-09-20T21:05:02.120Z,56.70
2018-09-20T21:07:32.117Z,56.80
2018-09-20T21:10:02.100Z,56.70
2018-09-20T21:12:31.443Z,56.90
2018-09-20T21:15:01.589Z,56.90
2018-09-20T21:17:32.182Z,56.80
2018-09-20T21:20:02.112Z,56.90
2018-09-20T21:22:32.183Z,56.80
2018-09-20T21:25:02.889Z,56.80
2018-09-20T21:27:33.043Z,56.80
2018-09-20T21:30:02.650Z,56.80
2018-09-20T21:32:32.107Z,56.90
2018-09-20T21:35:02.859Z,57.10
2018-09-20T21:37:33.231Z,56.90
2018-09-20T21:40:02.313Z,57.00
2018-09-20T21:42:31.203Z,57.00
2018-09-20T21:45:00.027Z,57.10
2018-09-20T21:47:29.621Z,57.00
2018-09-20T21:50:01.682Z,57.20
2018-09-20T21:52:42.521Z,57.40
2018-09-20T21:55:13.290Z,57.30
2018-09-20T21:57:45.056Z,57.30
2018-09-20T22:00:14.588Z,57.30
2018-09-20T22:02:48.734Z,57.40
2018-09-20T22:05:18.958Z,57.50
2018-09-20T22:07:48.996Z,57.50
2018-09-20T22:10:17.955Z,57.60
2018-09-20T22:12:46.854Z,57.90
2018-09-20T22:15:26.113Z,57.80
2018-09-20T22:17:56.392Z,57.90
2018-09-20T22:20:27.353Z,57.80
2018-09-20T22:22:56.233Z,57.90
2018-09-20T22:25:25.504Z,58.10
2018-09-20T22:27:54.924Z,58.10
2018-09-20T22:30:23.850Z,58.40
2018-09-20T22:32:54.940Z,58.10
2018-09-20T22:35:24.160Z,58.20
2018-09-20T22:37:53.292Z,58.30
2018-09-20T22:40:21.933Z,58.20
2018-09-20T22:42:51.074Z,58.30
2018-09-20T22:45:19.731Z,58.40
2018-09-20T22:47:48.765Z,58.40
2018-09-20T22:50:17.868Z,58.50
2018-09-20T22:52:48.158Z,58.70
2018-09-20T22:55:18.229Z,58.70
2018-09-20T22:57:47.299Z,58.50
2018-09-20T23:00:20.410Z,58.70
2018-09-20T23:02:51.760Z,58.70
2018-09-20T23:05:21.814Z,58.70
2018-09-20T23:07:53.909Z,58.70
2018-09-20T23:10:22.984Z,58.90
2018-09-20T23:12:51.740Z,58.90
2018-09-20T23:15:20.620Z,58.70
2018-09-20T23:17:50.425Z,58.70
2018-09-20T23:20:21.176Z,58.80
2018-09-20T23:22:50.477Z,58.80
2018-09-20T23:25:19.518Z,59.00
2018-09-20T23:27:48.517Z,59.30
2018-09-20T23:30:17.362Z,59.10
2018-09-20T23:32:46.585Z,59.10
2018-09-20T23:35:15.542Z,59.20
2018-09-20T23:37:44.655Z,59.20
2018-09-20T23:40:13.625Z,59.20
2018-09-20T23:42:42.708Z,59.40
2018-09-20T23:45:13.021Z,59.40
2018-09-20T23:47:42.721Z,59.80
2018-09-20T23:50:12.228Z,59.50
2018-09-20T23:52:41.872Z,59.80
2018-09-20T23:55:10.985Z,59.80
2018-09-20T23:57:40.174Z,60.00
